Time;durP1;ratioP1;P1;durP2;ratioP2;P2;SDS_P1;SDS_P2;PMS_P1;PMS_P2;Temp;Humidity;BMP_temperature;BMP_pressure;BME280_temperature;BME280_humidity;BME280_pressure;Samples;Min_cycle;Max_cycle;Signal;HPM_P1;HPM_P2
2021/01/25 00:02:01;;;;;;;12.13;9.97;;;1.40;99.90;;;;;;5075468;28;20191;-87
2021/01/25 00:04:28;;;;;;;10.90;9.43;;;1.40;99.90;;;;;;5076502;28;20554;-86
2021/01/25 00:06:55;;;;;;;10.77;8.27;;;1.40;99.90;;;;;;5076501;28;20211;-86
2021/01/25 00:09:23;;;;;;;8.87;7.87;;;1.50;99.90;;;;;;5076661;28;20251;-88
2021/01/25 00:11:54;;;;;;;10.47;8.07;;;1.40;99.90;;;;;;5076508;28;20639;-88
2021/01/25 00:14:28;;;;;;;9.87;8.33;;;1.40;99.90;;;;;;5075124;28;20675;-88
2021/01/25 00:16:57;;;;;;;8.27;7.13;;;1.40;99.90;;;;;;5075220;28;20199;-88
2021/01/25 00:19:32;;;;;;;10.30;8.00;;;1.40;99.90;;;;;;5075031;28;20190;-88
2021/01/25 00:22:08;;;;;;;12.00;8.27;;;1.30;99.90;;;;;;5075208;28;20181;-88
2021/01/25 00:24:39;;;;;;;11.50;8.00;;;1.20;99.90;;;;;;5075050;28;20207;-89
2021/01/25 00:27:11;;;;;;;12.70;8.57;;;1.30;99.90;;;;;;5074924;28;20695;-88
2021/01/25 00:29:43;;;;;;;11.10;7.80;;;1.20;99.90;;;;;;5076130;28;20201;-88
2021/01/25 00:32:21;;;;;;;12.17;8.00;;;1.20;99.90;;;;;;5076157;28;20190;-88
2021/01/25 00:34:59;;;;;;;9.57;7.13;;;1.20;99.90;;;;;;5076155;28;20171;-88
2021/01/25 00:37:31;;;;;;;8.83;7.93;;;1.20;99.90;;;;;;5075920;28;20277;-88
2021/01/25 00:40:05;;;;;;;8.67;7.73;;;1.20;99.90;;;;;;5074616;28;20179;-87
2021/01/25 00:42:37;;;;;;;9.10;7.77;;;1.20;99.90;;;;;;5075150;28;20179;-87
2021/01/25 00:45:14;;;;;;;10.93;7.73;;;1.20;99.90;;;;;;5076210;28;20164;-87
2021/01/25 00:47:51;;;;;;;11.33;8.23;;;1.20;99.90;;;;;;5074278;28;20222;-88
2021/01/25 00:50:26;;;;;;;9.93;7.90;;;1.20;99.90;;;;;;5075091;28;20220;-89
2021/01/25 00:52:57;;;;;;;9.93;7.67;;;1.20;99.90;;;;;;5074605;28;20175;-88
2021/01/25 00:55:31;;;;;;;8.97;7.37;;;1.20;99.90;;;;;;5076042;28;20192;-88
2021/01/25 00:58:01;;;;;;;9.10;7.50;;;1.20;99.90;;;;;;5074328;28;20256;-88
2021/01/25 01:00:30;;;;;;;9.37;7.67;;;1.20;99.90;;;;;;5075487;28;20270;-87
2021/01/25 01:03:06;;;;;;;8.93;7.40;;;1.20;99.90;;;;;;5074291;28;20536;-87
2021/01/25 01:05:40;;;;;;;10.67;8.07;;;1.20;99.90;;;;;;5074298;28;20182;-87
2021/01/25 01:08:14;;;;;;;11.93;8.33;;;1.30;99.90;;;;;;5074090;28;20198;-87
2021/01/25 01:10:48;;;;;;;8.80;7.67;;;1.20;99.90;;;;;;5074639;28;20175;-88
2021/01/25 01:13:20;;;;;;;8.50;6.97;;;1.20;99.90;;;;;;5074367;28;20176;-88
2021/01/25 01:15:51;;;;;;;11.80;8.10;;;1.20;99.90;;;;;;5074028;28;20168;-88
2021/01/25 01:18:23;;;;;;;11.37;8.37;;;1.20;99.90;;;;;;5073875;28;20282;-88
2021/01/25 01:20:54;;;;;;;9.97;8.33;;;1.20;99.90;;;;;;5074285;28;20172;-87
2021/01/25 01:23:31;;;;;;;9.07;7.97;;;1.20;99.90;;;;;;5073869;28;20549;-88
2021/01/25 01:26:05;;;;;;;9.73;7.73;;;1.20;99.90;;;;;;5073834;28;20256;-88
2021/01/25 01:28:37;;;;;;;11.47;7.50;;;1.20;99.90;;;;;;5074952;28;20682;-87
2021/01/25 01:31:10;;;;;;;13.33;8.33;;;1.20;99.90;;;;;;5074989;28;20170;-88
2021/01/25 01:33:41;;;;;;;9.50;7.73;;;1.20;99.90;;;;;;5074970;28;20683;-88
2021/01/25 01:36:15;;;;;;;8.23;6.93;;;1.20;99.90;;;;;;5073714;28;20266;-87
2021/01/25 01:38:49;;;;;;;9.90;7.60;;;1.20;99.90;;;;;;5073474;28;20191;-88
2021/01/25 01:41:21;;;;;;;8.67;7.60;;;1.20;99.90;;;;;;5074275;28;20278;-88
2021/01/25 01:43:53;;;;;;;8.83;7.57;;;1.20;99.90;;;;;;5073528;28;20258;-88
2021/01/25 01:46:29;;;;;;;11.10;7.50;;;1.30;99.90;;;;;;5073277;28;20202;-88
2021/01/25 01:49:04;;;;;;;12.67;8.33;;;1.20;99.90;;;;;;5073359;28;20186;-88
2021/01/25 01:51:41;;;;;;;11.97;8.53;;;1.20;99.90;;;;;;5074808;28;20156;-88
2021/01/25 01:54:18;;;;;;;9.77;8.23;;;1.20;99.90;;;;;;5073411;28;20217;-88
2021/01/25 01:56:51;;;;;;;15.70;8.23;;;1.10;99.90;;;;;;5073497;28;20199;-87
2021/01/25 01:59:27;;;;;;;12.37;8.77;;;1.20;99.90;;;;;;5074425;28;20297;-87
2021/01/25 02:01:58;;;;;;;11.40;9.07;;;1.20;99.90;;;;;;5073064;28;20175;-87
2021/01/25 02:04:27;;;;;;;11.67;8.80;;;1.10;99.90;;;;;;5073161;28;20176;-88
2021/01/25 02:07:04;;;;;;;15.23;9.10;;;1.20;99.90;;;;;;5072816;28;20211;-88
2021/01/25 02:09:41;;;;;;;12.07;9.33;;;1.20;99.90;;;;;;5073754;28;20562;-88
2021/01/25 02:12:16;;;;;;;9.00;7.93;;;1.30;99.90;;;;;;5073911;28;20260;-88
2021/01/25 02:14:50;;;;;;;11.47;7.20;;;1.20;99.90;;;;;;5073066;28;20540;-88
2021/01/25 02:17:21;;;;;;;9.53;7.80;;;1.20;99.90;;;;;;5072564;28;20565;-88
2021/01/25 02:20:06;;;;;;;11.47;8.30;;;1.20;99.90;;;;;;5073936;28;20206;-88
2021/01/25 02:22:39;;;;;;;9.97;8.80;;;1.20;99.90;;;;;;5073938;28;20250;-88
2021/01/25 02:25:37;;;;;;;9.20;8.30;;;1.10;99.90;;;;;;5074292;28;20155;-88
2021/01/25 02:28:09;;;;;;;10.67;8.70;;;1.20;99.90;;;;;;5072614;28;20203;-88
2021/01/25 02:30:41;;;;;;;13.77;8.23;;;1.10;99.90;;;;;;5072564;28;20171;-88
2021/01/25 02:33:09;;;;;;;8.00;7.20;;;1.10;99.90;;;;;;5073809;28;20172;-88
2021/01/25 02:35:40;;;;;;;9.33;8.33;;;1.20;99.90;;;;;;5073735;28;20635;-88
2021/01/25 02:38:19;;;;;;;9.97;8.50;;;1.20;99.90;;;;;;5072570;28;20196;-88
2021/01/25 02:40:54;;;;;;;9.30;7.93;;;1.20;99.90;;;;;;5074262;28;20171;-88
2021/01/25 02:43:30;;;;;;;13.77;8.63;;;1.20;99.90;;;;;;5072371;28;20180;-88
2021/01/25 02:45:57;;;;;;;10.87;8.57;;;1.20;99.90;;;;;;5072050;28;20175;-88
2021/01/25 02:48:24;;;;;;;11.87;8.90;;;1.20;99.90;;;;;;5157495;22;20327;-89
2021/01/25 02:50:58;;;;;;;13.40;8.90;;;1.10;99.90;;;;;;5072482;28;20173;-89
2021/01/25 02:53:30;;;;;;;10.90;8.77;;;1.20;99.90;;;;;;5073842;28;20250;-89
2021/01/25 02:56:01;;;;;;;10.03;9.00;;;1.20;99.90;;;;;;5073884;28;20162;-89
2021/01/25 02:58:31;;;;;;;12.00;9.43;;;1.20;99.90;;;;;;5073427;28;20184;-89
2021/01/25 03:01:05;;;;;;;11.00;9.70;;;1.20;99.90;;;;;;5073799;28;20584;-89
2021/01/25 03:03:32;;;;;;;18.77;10.13;;;1.20;99.90;;;;;;5072543;28;20195;-89
2021/01/25 03:06:07;;;;;;;14.90;9.90;;;1.10;99.90;;;;;;5072267;28;20526;-89
2021/01/25 03:08:41;;;;;;;18.00;13.10;;;1.10;99.90;;;;;;5072435;28;20194;-89
2021/01/25 03:11:11;;;;;;;14.17;10.63;;;1.10;99.90;;;;;;5072980;28;20585;-89
2021/01/25 03:13:39;;;;;;;13.70;11.00;;;1.10;99.90;;;;;;5072146;28;20250;-89
2021/01/25 03:16:14;;;;;;;16.10;11.93;;;1.20;99.90;;;;;;5073316;28;20199;-89
2021/01/25 03:18:51;;;;;;;17.53;11.90;;;1.20;99.90;;;;;;5072086;28;20604;-89
2021/01/25 03:21:21;;;;;;;17.73;11.53;;;1.20;99.90;;;;;;5072951;28;20550;-89
2021/01/25 03:23:52;;;;;;;13.20;9.47;;;1.10;99.90;;;;;;5072136;28;20219;-89
2021/01/25 03:26:25;;;;;;;14.23;8.90;;;1.20;99.90;;;;;;5071860;28;20687;-89
2021/01/25 03:28:58;;;;;;;16.43;9.40;;;1.10;99.90;;;;;;5074854;28;20202;-89
2021/01/25 03:31:31;;;;;;;14.73;10.30;;;1.10;99.90;;;;;;5078978;28;20175;-89
2021/01/25 03:34:06;;;;;;;15.00;10.77;;;1.00;99.90;;;;;;5078539;28;20651;-89
2021/01/25 03:36:41;;;;;;;18.03;13.00;;;1.00;99.90;;;;;;5078919;28;20228;-89
2021/01/25 03:39:12;;;;;;;20.37;15.10;;;0.90;99.90;;;;;;5079856;28;20166;-89
2021/01/25 03:41:47;;;;;;;20.57;15.77;;;1.00;99.90;;;;;;5078666;28;20176;-89
2021/01/25 03:44:21;;;;;;;19.97;14.17;;;1.00;99.90;;;;;;5078874;28;20204;-89
2021/01/25 03:46:53;;;;;;;23.33;15.67;;;1.00;99.90;;;;;;5078771;28;20191;-89
2021/01/25 03:49:25;;;;;;;22.30;14.13;;;1.00;99.90;;;;;;5078474;28;20602;-89
2021/01/25 03:51:50;;;;;;;23.50;16.17;;;1.10;99.90;;;;;;5078656;28;20298;-89
2021/01/25 03:54:24;;;;;;;22.00;16.30;;;1.00;99.90;;;;;;5079691;28;20587;-89
2021/01/25 03:56:56;;;;;;;28.03;16.20;;;1.00;99.90;;;;;;5078485;28;20183;-89
2021/01/25 03:59:29;;;;;;;23.33;17.33;;;1.00;99.90;;;;;;5079771;28;20238;-89
2021/01/25 04:02:01;;;;;;;21.73;16.40;;;1.10;99.90;;;;;;5078399;28;20180;-89
2021/01/25 04:04:33;;;;;;;23.90;16.73;;;1.10;99.90;;;;;;5079569;28;20168;-89
2021/01/25 04:07:00;;;;;;;23.50;16.43;;;1.00;99.90;;;;;;5078352;28;20203;-88
2021/01/25 04:09:28;;;;;;;24.47;16.70;;;1.00;99.90;;;;;;5079506;28;20183;-89
2021/01/25 04:11:54;;;;;;;26.63;16.07;;;0.90;99.90;;;;;;5078251;28;20317;-89
2021/01/25 04:14:30;;;;;;;25.10;16.43;;;0.90;99.90;;;;;;5078245;28;20261;-89
2021/01/25 04:17:01;;;;;;;22.60;15.10;;;0.90;99.90;;;;;;5078185;28;20569;-89
2021/01/25 04:19:38;;;;;;;22.97;15.07;;;0.80;99.90;;;;;;5078243;28;20244;-88
2021/01/25 04:22:11;;;;;;;26.00;15.77;;;0.80;99.90;;;;;;5079588;28;20162;-89
2021/01/25 04:24:43;;;;;;;25.10;15.07;;;0.80;99.90;;;;;;5079347;28;20172;-89
2021/01/25 04:27:16;;;;;;;21.53;15.23;;;0.80;99.90;;;;;;5078044;28;20672;-88
2021/01/25 04:29:51;;;;;;;23.83;15.93;;;0.80;99.90;;;;;;5079024;28;20167;-89
2021/01/25 04:32:23;;;;;;;21.80;16.40;;;0.80;99.90;;;;;;5078155;28;20193;-89
2021/01/25 04:34:49;;;;;;;28.70;15.40;;;0.80;99.90;;;;;;5078143;28;20179;-89
2021/01/25 04:37:21;;;;;;;22.97;15.73;;;0.80;99.90;;;;;;5078676;28;20551;-89
2021/01/25 04:39:51;;;;;;;24.57;16.03;;;0.80;99.90;;;;;;5076695;28;20182;-89
2021/01/25 04:42:27;;;;;;;26.63;17.93;;;0.90;99.90;;;;;;5074844;28;20270;-89
2021/01/25 04:45:01;;;;;;;23.90;17.30;;;0.80;99.90;;;;;;5074764;28;20206;-89
2021/01/25 04:47:36;;;;;;;23.93;17.23;;;0.80;99.90;;;;;;5075151;28;20219;-89
2021/01/25 04:50:08;;;;;;;23.93;15.93;;;0.80;99.90;;;;;;5074756;28;20190;-89
2021/01/25 04:52:41;;;;;;;24.93;18.33;;;0.80;99.90;;;;;;5075009;28;20175;-89
2021/01/25 04:55:17;;;;;;;25.33;17.63;;;0.90;99.90;;;;;;5074633;28;20182;-89
2021/01/25 04:57:50;;;;;;;25.40;18.03;;;0.80;99.90;;;;;;5074960;28;20691;-89
2021/01/25 05:00:24;;;;;;;29.83;17.50;;;0.90;99.90;;;;;;5075651;28;20229;-88
2021/01/25 05:02:58;;;;;;;24.83;17.73;;;0.90;99.90;;;;;;5074491;28;20203;-89
2021/01/25 05:05:31;;;;;;;25.20;17.30;;;0.90;99.90;;;;;;5074458;28;20194;-89
2021/01/25 05:08:01;;;;;;;21.83;16.87;;;0.90;99.90;;;;;;5074501;28;20302;-89
2021/01/25 05:10:33;;;;;;;26.30;18.00;;;0.80;99.90;;;;;;5076062;28;20557;-89
2021/01/25 05:13:00;;;;;;;26.37;17.87;;;0.80;99.90;;;;;;5075496;28;20159;-89
2021/01/25 05:15:37;;;;;;;21.83;15.80;;;0.80;99.90;;;;;;5074334;28;20179;-89
2021/01/25 05:18:11;;;;;;;23.67;16.57;;;0.80;99.90;;;;;;5074282;28;20743;-89
2021/01/25 05:20:41;;;;;;;23.20;17.30;;;0.80;99.90;;;;;;5074279;28;20725;-89
2021/01/25 05:23:17;;;;;;;23.03;17.13;;;0.70;99.90;;;;;;5075251;28;20663;-89
2021/01/25 05:25:51;;;;;;;24.47;17.13;;;0.70;99.90;;;;;;5074083;28;20159;-89
2021/01/25 05:28:24;;;;;;;28.27;17.70;;;0.60;99.90;;;;;;5074560;28;20241;-89
2021/01/25 05:30:50;;;;;;;24.03;18.03;;;0.60;99.90;;;;;;5073975;28;20171;-89
2021/01/25 05:33:31;;;;;;;25.23;18.17;;;0.60;99.90;;;;;;5073909;28;20175;-89
2021/01/25 05:36:06;;;;;;;29.83;19.03;;;0.60;99.90;;;;;;5075364;28;20156;-89
2021/01/25 05:38:39;;;;;;;28.77;19.17;;;0.50;99.90;;;;;;5075326;28;20232;-89
2021/01/25 05:41:14;;;;;;;23.23;17.57;;;0.50;99.90;;;;;;5073806;28;20178;-89
2021/01/25 05:43:47;;;;;;;22.90;17.37;;;0.50;99.90;;;;;;5073756;28;20182;-89
2021/01/25 05:46:21;;;;;;;26.23;18.23;;;0.50;99.90;;;;;;5074127;28;20621;-89
2021/01/25 05:49:06;;;;;;;30.10;18.97;;;0.50;99.90;;;;;;5073572;28;20236;-89
2021/01/25 05:51:39;;;;;;;27.50;17.80;;;0.50;99.90;;;;;;5073990;28;20164;-89
2021/01/25 05:54:11;;;;;;;34.20;20.57;;;0.60;99.90;;;;;;5074450;28;20769;-89
2021/01/25 05:56:39;;;;;;;43.33;19.97;;;0.50;99.90;;;;;;5074503;28;20209;-89
2021/01/25 05:59:14;;;;;;;58.93;19.73;;;0.60;99.90;;;;;;5073374;28;20179;-89
2021/01/25 06:01:40;;;;;;;53.97;19.47;;;0.50;99.90;;;;;;5073196;28;20181;-89
2021/01/25 06:04:21;;;;;;;69.40;20.37;;;0.50;99.90;;;;;;5074525;28;20182;-89
2021/01/25 06:07:04;;;;;;;33.53;19.17;;;0.40;99.90;;;;;;5073079;28;20191;-89
2021/01/25 06:09:54;;;;;;;69.10;20.70;;;0.50;99.90;;;;;;5073332;28;20163;-89
2021/01/25 06:12:38;;;;;;;31.10;18.67;;;0.40;99.90;;;;;;5073440;28;20167;-89
2021/01/25 06:15:24;;;;;;;26.13;16.83;;;0.50;99.90;;;;;;5073092;28;20217;-89
2021/01/25 06:17:59;;;;;;;48.10;16.00;;;0.50;99.90;;;;;;5072965;28;20202;-89
2021/01/25 06:20:33;;;;;;;44.40;16.30;;;0.50;99.90;;;;;;5073200;28;20206;-89
2021/01/25 06:23:10;;;;;;;68.93;18.70;;;0.30;99.90;;;;;;5073704;28;20550;-89
2021/01/25 06:25:41;;;;;;;58.73;17.87;;;0.30;99.90;;;;;;5072914;28;20177;-89
2021/01/25 06:28:15;;;;;;;45.90;18.17;;;0.30;99.90;;;;;;5072714;28;20203;-88
2021/01/25 06:30:47;;;;;;;55.70;19.43;;;0.30;99.90;;;;;;5072678;28;20182;-89
2021/01/25 06:33:19;;;;;;;71.77;20.03;;;0.20;99.90;;;;;;5072805;28;20262;-89
2021/01/25 06:35:56;;;;;;;58.40;20.37;;;0.20;99.90;;;;;;5072861;28;20580;-89
2021/01/25 06:38:37;;;;;;;40.43;20.07;;;0.20;99.90;;;;;;5074211;28;20193;-89
2021/01/25 06:41:14;;;;;;;65.53;20.90;;;0.20;99.90;;;;;;5072838;28;20262;-89
2021/01/25 06:43:49;;;;;;;53.70;22.57;;;0.30;99.90;;;;;;5072802;28;20647;-89
2021/01/25 06:46:21;;;;;;;40.70;22.83;;;0.30;99.90;;;;;;5072479;28;20288;-89
2021/01/25 06:49:01;;;;;;;56.90;21.20;;;0.40;99.90;;;;;;5072828;28;20199;-89
2021/01/25 06:51:32;;;;;;;43.43;19.57;;;0.40;99.90;;;;;;5072449;28;20175;-89
2021/01/25 06:54:06;;;;;;;48.10;21.50;;;0.40;99.90;;;;;;5072682;28;20662;-89
2021/01/25 06:56:55;;;;;;;41.40;21.47;;;0.40;99.90;;;;;;5072347;28;20256;-89
2021/01/25 06:59:30;;;;;;;39.93;21.47;;;0.20;99.90;;;;;;5072411;28;20175;-88
2021/01/25 07:02:07;;;;;;;56.93;21.37;;;0.30;99.90;;;;;;5073199;28;20713;-89
2021/01/25 07:04:45;;;;;;;50.67;20.07;;;0.20;99.90;;;;;;5073086;28;20676;-89
2021/01/25 07:07:27;;;;;;;66.23;21.03;;;0.20;99.90;;;;;;5072731;28;20626;-89
2021/01/25 07:09:55;;;;;;;36.57;21.73;;;0.20;99.90;;;;;;5073481;28;20162;-89
2021/01/25 07:12:23;;;;;;;44.27;21.53;;;0.20;99.90;;;;;;5072221;28;20167;-89
2021/01/25 07:15:01;;;;;;;55.47;23.67;;;0.20;99.90;;;;;;5073375;28;20171;-89
2021/01/25 07:17:36;;;;;;;42.57;21.83;;;0.30;99.90;;;;;;5072218;28;20222;-89
2021/01/25 07:20:04;;;;;;;33.20;20.83;;;0.30;99.90;;;;;;5072397;28;20179;-89
2021/01/25 07:22:41;;;;;;;41.23;22.70;;;0.20;99.90;;;;;;5072072;28;20178;-89
2021/01/25 07:25:14;;;;;;;37.27;21.47;;;0.20;99.90;;;;;;5073326;28;20260;-89
2021/01/25 07:27:46;;;;;;;54.27;25.10;;;0.20;99.90;;;;;;5073122;28;20220;-89
2021/01/25 07:30:21;;;;;;;54.33;20.37;;;0.10;99.90;;;;;;5072121;28;20205;-89
2021/01/25 07:32:54;;;;;;;53.40;23.07;;;0.20;99.90;;;;;;5072162;28;20176;-89
2021/01/25 07:35:35;;;;;;;47.43;21.77;;;0.10;99.90;;;;;;5073584;28;20336;-89
2021/01/25 07:38:05;;;;;;;50.87;22.10;;;0.10;99.90;;;;;;5072381;28;20249;-89
2021/01/25 07:40:37;;;;;;;50.43;26.03;;;0.20;99.90;;;;;;5073168;28;20175;-89
2021/01/25 07:43:11;;;;;;;46.80;22.30;;;0.20;99.90;;;;;;5071983;28;20185;-89
2021/01/25 07:45:41;;;;;;;46.90;23.57;;;0.30;99.90;;;;;;5071879;28;20175;-89
2021/01/25 07:48:17;;;;;;;46.67;24.90;;;0.20;99.90;;;;;;5071697;28;20623;-89
2021/01/25 07:50:56;;;;;;;41.10;23.43;;;0.20;99.90;;;;;;5072088;28;20173;-89
2021/01/25 07:53:23;;;;;;;48.37;25.47;;;0.20;99.90;;;;;;5071812;28;20180;-89
2021/01/25 07:55:54;;;;;;;50.60;26.20;;;0.20;99.90;;;;;;5071878;28;20175;-89
2021/01/25 07:58:27;;;;;;;46.83;25.73;;;0.20;99.90;;;;;;5071958;28;20187;-89
2021/01/25 08:01:00;;;;;;;64.03;27.07;;;0.30;99.90;;;;;;5072297;28;20179;-89
2021/01/25 08:03:38;;;;;;;53.13;28.03;;;0.30;99.90;;;;;;5071682;28;20178;-89
2021/01/25 08:06:07;;;;;;;47.10;26.33;;;0.30;99.90;;;;;;5072798;28;20167;-89
2021/01/25 08:08:37;;;;;;;52.03;26.73;;;0.30;99.90;;;;;;5072768;28;20200;-89
2021/01/25 08:11:14;;;;;;;49.13;26.37;;;0.30;99.90;;;;;;5072929;28;20218;-89
2021/01/25 08:13:56;;;;;;;50.17;28.27;;;0.40;99.90;;;;;;5071558;28;20171;-89
2021/01/25 08:16:27;;;;;;;50.23;27.50;;;0.30;99.90;;;;;;5073910;28;20558;-89
2021/01/25 08:19:10;;;;;;;50.13;29.40;;;0.30;99.90;;;;;;5075300;28;20199;-89
2021/01/25 08:22:15;;;;;;;44.97;26.33;;;0.40;99.90;;;;;;5075170;28;20195;-89
2021/01/25 08:24:42;;;;;;;46.90;27.00;;;0.40;99.90;;;;;;5075358;28;20214;-89
2021/01/25 08:27:22;;;;;;;45.83;27.00;;;0.40;99.90;;;;;;5074931;28;20219;-89
2021/01/25 08:30:06;;;;;;;47.53;27.20;;;0.40;99.90;;;;;;5075461;28;20175;-89
2021/01/25 08:32:49;;;;;;;50.00;28.00;;;0.40;99.90;;;;;;5075194;28;20171;-89
2021/01/25 08:35:35;;;;;;;56.93;29.97;;;0.50;99.90;;;;;;5075695;28;20578;-89
2021/01/25 08:38:31;;;;;;;50.07;28.80;;;0.40;99.90;;;;;;5074886;28;20737;-89
2021/01/25 08:41:14;;;;;;;50.83;25.43;;;0.50;99.90;;;;;;5075309;28;20179;-88
2021/01/25 08:43:51;;;;;;;57.73;25.97;;;0.50;99.90;;;;;;5075121;28;20208;-89
2021/01/25 08:46:19;;;;;;;50.83;27.07;;;0.40;99.90;;;;;;5074792;28;20209;-89
2021/01/25 08:48:50;;;;;;;46.13;25.90;;;0.50;99.90;;;;;;5167052;22;20235;-88
2021/01/25 08:51:34;;;;;;;59.43;28.77;;;0.50;99.90;;;;;;5075772;28;20588;-88
2021/01/25 08:54:33;;;;;;;56.83;27.97;;;0.40;99.90;;;;;;5076351;28;20171;-88
2021/01/25 08:56:59;;;;;;;51.27;27.40;;;0.40;99.90;;;;;;5063285;28;20235;-88
2021/01/25 08:59:33;;;;;;;68.67;28.33;;;0.40;99.90;;;;;;5076709;28;20202;-88
2021/01/25 09:02:24;;;;;;;73.50;31.87;;;0.40;99.90;;;;;;5076277;28;20183;-87
2021/01/25 09:04:53;;;;;;;64.53;27.33;;;0.40;99.90;;;;;;5069968;28;20188;-88
2021/01/25 09:07:24;;;;;;;71.63;30.37;;;0.40;99.90;;;;;;5074210;28;20700;-88
2021/01/25 09:09:59;;;;;;;53.13;25.97;;;0.30;99.90;;;;;;5074181;28;20225;-88
2021/01/25 09:12:31;;;;;;;63.13;29.03;;;0.40;99.90;;;;;;5074271;28;20185;-89
2021/01/25 09:15:03;;;;;;;57.90;25.27;;;0.30;99.90;;;;;;5074269;28;20175;-89
2021/01/25 09:17:36;;;;;;;43.53;24.83;;;0.30;99.90;;;;;;5074045;28;20176;-88
2021/01/25 09:20:10;;;;;;;57.27;25.40;;;0.40;99.90;;;;;;5075279;28;20206;-88
2021/01/25 09:22:45;;;;;;;54.77;26.50;;;0.30;99.90;;;;;;5074026;28;20179;-88
2021/01/25 09:25:21;;;;;;;55.07;27.40;;;0.40;99.90;;;;;;5073961;28;20185;-89
2021/01/25 09:28:00;;;;;;;36.53;20.80;;;0.40;99.90;;;;;;5073549;28;20690;-88
2021/01/25 09:30:28;;;;;;;44.33;21.27;;;0.40;99.90;;;;;;5075059;28;20700;-88
2021/01/25 09:33:00;;;;;;;35.73;21.53;;;0.50;99.90;;;;;;5073796;28;20739;-89
2021/01/25 09:35:31;;;;;;;49.57;23.27;;;0.50;99.90;;;;;;5073718;28;20259;-88
2021/01/25 09:38:02;;;;;;;51.47;27.00;;;0.40;99.90;;;;;;5073847;28;20220;-88
2021/01/25 09:40:34;;;;;;;45.10;26.83;;;0.60;99.90;;;;;;5074896;28;20190;-89
2021/01/25 09:43:05;;;;;;;47.53;26.40;;;0.60;99.90;;;;;;5074893;28;20171;-89
2021/01/25 09:45:38;;;;;;;42.53;24.40;;;0.60;99.90;;;;;;5073638;28;20171;-89
2021/01/25 09:48:17;;;;;;;47.93;24.20;;;0.60;99.90;;;;;;5073531;28;20614;-89
2021/01/25 09:50:51;;;;;;;40.20;23.83;;;0.70;99.90;;;;;;5073514;28;20178;-89
2021/01/25 09:53:24;;;;;;;36.53;21.87;;;0.70;99.90;;;;;;5074730;28;20258;-89
2021/01/25 09:56:01;;;;;;;35.13;20.70;;;0.70;99.90;;;;;;5073452;28;20651;-90
2021/01/25 09:58:34;;;;;;;30.73;19.27;;;0.80;99.90;;;;;;5073200;28;20194;-90
2021/01/25 10:01:14;;;;;;;30.80;19.67;;;0.80;99.90;;;;;;5074434;28;20168;-89
2021/01/25 10:03:51;;;;;;;38.53;23.50;;;0.80;99.90;;;;;;5074809;28;20156;-88
2021/01/25 10:06:28;;;;;;;28.33;19.90;;;1.00;99.90;;;;;;5073296;28;20174;-88
2021/01/25 10:09:02;;;;;;;31.73;18.67;;;0.90;99.90;;;;;;5072967;28;20190;-88
2021/01/25 10:11:37;;;;;;;38.70;21.47;;;0.90;99.90;;;;;;5073110;28;20181;-88
2021/01/25 10:14:11;;;;;;;40.77;22.10;;;1.00;99.90;;;;;;5074264;28;20228;-89
2021/01/25 10:16:47;;;;;;;35.20;21.97;;;1.00;99.90;;;;;;5072966;28;20167;-89
2021/01/25 10:19:19;;;;;;;34.03;21.03;;;1.10;99.90;;;;;;5073119;28;20199;-88
2021/01/25 10:21:50;;;;;;;30.67;21.20;;;1.20;99.90;;;;;;5074402;28;20163;-89
2021/01/25 10:24:27;;;;;;;30.97;21.47;;;1.20;99.90;;;;;;5073932;28;20180;-89
2021/01/25 10:27:03;;;;;;;30.23;20.43;;;1.10;99.90;;;;;;5072909;28;20202;-89
2021/01/25 10:29:32;;;;;;;27.23;19.50;;;1.20;99.90;;;;;;5073977;28;20189;-89
2021/01/25 10:32:07;;;;;;;35.90;22.50;;;1.10;99.90;;;;;;5072750;28;20524;-90
2021/01/25 10:34:41;;;;;;;32.47;21.77;;;1.10;99.90;;;;;;5072579;28;20238;-90
2021/01/25 10:37:19;;;;;;;33.30;22.60;;;1.10;99.90;;;;;;5072482;28;20720;-90
2021/01/25 10:39:51;;;;;;;35.03;23.70;;;1.10;99.90;;;;;;5072366;28;20203;-90
2021/01/25 10:42:25;;;;;;;35.03;22.20;;;1.00;99.90;;;;;;5072417;28;20257;-90
2021/01/25 10:45:00;;;;;;;33.07;22.43;;;1.10;99.90;;;;;;5072532;28;20257;-89
2021/01/25 10:47:27;;;;;;;31.40;22.33;;;1.10;99.90;;;;;;5072718;28;20187;-88
2021/01/25 10:49:55;;;;;;;38.00;24.23;;;1.00;99.90;;;;;;5073525;28;20214;-88
2021/01/25 10:52:22;;;;;;;34.43;22.30;;;1.00;99.90;;;;;;5072623;28;20258;-89
2021/01/25 10:54:48;;;;;;;41.63;26.00;;;1.20;99.90;;;;;;5072326;28;20186;-89
2021/01/25 10:57:14;;;;;;;45.40;27.67;;;1.10;99.90;;;;;;5072319;28;20260;-88
2021/01/25 10:59:42;;;;;;;45.93;26.33;;;1.30;99.90;;;;;;5073275;28;20290;-89
2021/01/25 11:02:08;;;;;;;44.17;26.10;;;1.20;99.90;;;;;;5072216;28;20592;-88
2021/01/25 11:04:34;;;;;;;42.93;24.87;;;1.10;99.90;;;;;;5074005;28;20194;-88
2021/01/25 11:07:00;;;;;;;46.67;26.53;;;1.10;99.90;;;;;;5073445;28;20199;-89
2021/01/25 11:09:26;;;;;;;42.83;27.13;;;1.20;99.90;;;;;;5072122;28;20225;-88
2021/01/25 11:11:51;;;;;;;42.97;26.17;;;1.30;99.90;;;;;;5073872;28;20623;-88
2021/01/25 11:14:18;;;;;;;47.20;27.00;;;1.10;99.90;;;;;;5072430;28;20167;-88
2021/01/25 11:16:44;;;;;;;47.43;26.37;;;1.20;99.90;;;;;;5072195;28;20604;-88
2021/01/25 11:19:10;;;;;;;48.33;28.57;;;1.20;99.90;;;;;;5072363;28;20196;-89
2021/01/25 11:21:36;;;;;;;44.90;25.07;;;1.20;99.90;;;;;;5072046;28;20180;-88
2021/01/25 11:24:03;;;;;;;53.43;27.43;;;1.20;99.90;;;;;;5072075;28;20179;-88
2021/01/25 11:26:33;;;;;;;45.20;26.53;;;1.10;99.90;;;;;;5072050;28;20199;-88
2021/01/25 11:28:59;;;;;;;44.70;25.63;;;1.10;99.90;;;;;;5071941;28;20199;-88
2021/01/25 11:31:25;;;;;;;48.20;28.23;;;1.20;99.90;;;;;;5073161;28;20169;-88
2021/01/25 11:33:50;;;;;;;46.23;26.83;;;1.30;99.90;;;;;;5072312;28;20257;-88
2021/01/25 11:36:16;;;;;;;48.73;27.63;;;1.40;99.90;;;;;;5071989;28;20206;-88
2021/01/25 11:38:42;;;;;;;50.60;28.70;;;1.40;99.90;;;;;;5073266;28;20195;-88
2021/01/25 11:41:07;;;;;;;47.50;27.40;;;1.50;99.90;;;;;;5073161;28;20171;-88
2021/01/25 11:43:33;;;;;;;44.80;26.83;;;1.60;99.90;;;;;;5071852;28;20262;-88
2021/01/25 11:45:59;;;;;;;45.20;26.50;;;1.60;99.90;;;;;;5073320;28;20167;-88
2021/01/25 11:48:25;;;;;;;46.53;27.93;;;1.50;99.90;;;;;;5071568;28;20302;-88
2021/01/25 11:50:52;;;;;;;45.23;27.90;;;1.60;99.90;;;;;;5075137;28;20171;-88
2021/01/25 11:53:18;;;;;;;44.67;27.33;;;1.60;99.90;;;;;;5075742;28;20199;-88
2021/01/25 11:55:44;;;;;;;39.57;21.63;;;1.70;99.90;;;;;;5077303;28;20201;-88
2021/01/25 11:58:10;;;;;;;36.30;22.13;;;1.50;99.90;;;;;;5075558;28;20195;-88
2021/01/25 12:00:36;;;;;;;36.97;23.47;;;1.60;99.90;;;;;;5077180;28;20615;-89
2021/01/25 12:03:02;;;;;;;36.00;21.90;;;1.60;99.90;;;;;;5075600;28;20210;-88
2021/01/25 12:05:28;;;;;;;33.77;21.50;;;1.70;99.90;;;;;;5075779;28;20182;-88
2021/01/25 12:07:54;;;;;;;34.37;23.03;;;1.70;99.90;;;;;;5075455;28;20207;-88
2021/01/25 12:10:20;;;;;;;38.10;23.37;;;1.80;99.90;;;;;;5075438;28;20652;-88
2021/01/25 12:12:45;;;;;;;33.30;20.20;;;1.80;99.90;;;;;;5076975;28;20165;-88
2021/01/25 12:15:11;;;;;;;28.47;19.97;;;1.80;99.90;;;;;;5075351;28;20211;-88
2021/01/25 12:17:37;;;;;;;29.60;19.57;;;1.80;99.90;;;;;;5075304;28;20272;-89
2021/01/25 12:20:03;;;;;;;30.17;21.73;;;1.80;99.90;;;;;;5075455;28;20192;-88
2021/01/25 12:22:29;;;;;;;30.20;21.23;;;2.00;99.90;;;;;;5076348;28;20173;-89
2021/01/25 12:24:55;;;;;;;33.47;21.47;;;2.00;99.90;;;;;;5075215;28;20183;-88
2021/01/25 12:27:20;;;;;;;24.30;19.23;;;2.00;99.90;;;;;;5075239;28;20245;-89
2021/01/25 12:29:47;;;;;;;31.27;20.97;;;2.20;99.90;;;;;;5075329;28;20269;-88
2021/01/25 12:32:12;;;;;;;29.50;20.07;;;2.30;99.90;;;;;;5076285;28;20159;-89
2021/01/25 12:34:38;;;;;;;28.97;20.83;;;2.50;99.90;;;;;;5075068;28;20172;-89
2021/01/25 12:37:04;;;;;;;24.33;18.87;;;2.40;99.90;;;;;;5075069;28;20191;-89
2021/01/25 12:39:30;;;;;;;27.63;16.63;;;2.40;99.90;;;;;;5074966;28;20192;-89
2021/01/25 12:41:56;;;;;;;19.83;12.80;;;2.40;99.90;;;;;;5074914;28;20187;-89
2021/01/25 12:44:21;;;;;;;18.23;13.73;;;2.40;99.90;;;;;;5074847;28;20211;-89
2021/01/25 12:46:51;;;;;;;20.37;13.33;;;2.30;99.90;;;;;;5074758;28;20202;-88
2021/01/25 12:49:19;;;;;;;22.67;14.17;;;2.30;99.90;;;;;;5074724;28;20204;-89
2021/01/25 12:51:44;;;;;;;22.80;15.17;;;2.40;99.90;;;;;;5074650;28;20172;-89
2021/01/25 12:54:10;;;;;;;18.00;13.90;;;2.30;99.90;;;;;;5074798;28;20173;-88
2021/01/25 12:56:39;;;;;;;17.97;11.53;;;2.30;99.90;;;;;;5074594;28;20712;-89
2021/01/25 12:59:07;;;;;;;18.03;13.60;;;2.20;99.90;;;;;;5074572;28;20228;-90
2021/01/25 13:01:35;;;;;;;19.67;13.57;;;2.40;99.90;;;;;;5073736;28;20550;-90
2021/01/25 13:04:03;;;;;;;20.17;14.57;;;2.60;99.90;;;;;;5074541;28;20272;-90
2021/01/25 13:06:31;;;;;;;21.30;13.97;;;2.90;99.90;;;;;;5074365;28;20197;-90
2021/01/25 13:09:01;;;;;;;19.10;12.67;;;3.00;99.90;;;;;;5074224;28;20201;-90